Time;durP1;ratioP1;P1;durP2;ratioP2;P2;SDS_P1;SDS_P2;PMS_P1;PMS_P2;Temp;Humidity;BMP_temperature;BMP_pressure;BME280_temperature;BME280_humidity;BME280_pressure;Samples;Min_cycle;Max_cycle;Signal;HPM_P1;HPM_P2
2023/06/11 00:00:51;;;;;;;;;;;;;;;;;;140859;1250;22248;-80
2023/06/11 00:04:13;;;;;;;;;;;;;;;;;;140838;1250;22337;-80
2023/06/11 00:07:14;;;;;;;;;;;;;;;;;;140843;1250;22837;-81
2023/06/11 00:10:15;;;;;;;;;;;;;;;;;;140821;1250;22268;-80
2023/06/11 00:13:16;;;;;;;;;;;;;;;;;;140836;1250;22235;-80
2023/06/11 00:16:17;;;;;;;;;;;;;;;;;;140830;1250;22233;-80
2023/06/11 00:19:19;;;;;;;;;;;;;;;;;;140748;1250;22247;-80
2023/06/11 00:22:26;;;;;;;;;;;;;;;;;;140742;1250;22252;-80
2023/06/11 00:25:27;;;;;;;;;;;;;;;;;;140702;1250;22259;-80
2023/06/11 00:28:28;;;;;;;;;;;;;;;;;;140687;1250;22236;-80
2023/06/11 00:31:29;;;;;;;;;;;;;;;;;;140672;1250;22297;-81
2023/06/11 00:34:33;;;;;;;;;;;;;;;;;;140676;1250;22182;-80
2023/06/11 00:37:35;;;;;;;;;;;;;;;;;;140690;1250;22495;-81
2023/06/11 00:40:36;;;;;;;;;;;;;;;;;;140643;1250;22247;-81
2023/06/11 00:43:38;;;;;;;;;;;;;;;;;;140658;1250;22404;-81
2023/06/11 00:46:41;;;;;;;;;;;;;;;;;;140633;1250;22214;-81
2023/06/11 00:49:42;;;;;;;;;;;;;;;;;;140628;1250;22247;-81
2023/06/11 00:52:43;;;;;;;;;;;;;;;;;;140658;1250;22301;-80
2023/06/11 00:55:45;;;;;;;;;;;;;;;;;;140637;1250;22292;-81
2023/06/11 00:58:46;;;;;;;;;;;;;;;;;;140662;1250;22239;-80
2023/06/11 01:01:47;;;;;;;;;;;;;;;;;;140638;1250;22728;-80
2023/06/11 01:04:48;;;;;;;;;;;;;;;;;;140665;1250;22227;-80
2023/06/11 01:07:51;;;;;;;;;;;;;;;;;;140685;1250;22379;-80
2023/06/11 01:10:52;;;;;;;;;;;;;;;;;;140667;1250;22231;-80
2023/06/11 01:13:54;;;;;;;;;;;;;;;;;;140647;1250;22257;-80
2023/06/11 01:17:02;;;;;;;;;;;;;;;;;;140537;1250;22255;-80
2023/06/11 01:20:09;;;;;;;;;;;;;;;;;;140609;1250;22379;-80
2023/06/11 01:23:10;;;;;;;;;;;;;;;;;;140678;1250;22244;-80
2023/06/11 01:26:12;;;;;;;;;;;;;;;;;;140669;1250;22299;-80
2023/06/11 01:29:13;;;;;;;;;;;;;;;;;;140691;1250;22277;-79
2023/06/11 01:32:14;;;;;;;;;;;;;;;;;;140653;1250;22265;-80
2023/06/11 01:35:15;;;;;;;;;;;;;;;;;;140675;1250;22246;-80
2023/06/11 01:38:17;;;;;;;;;;;;;;;;;;140664;1250;22316;-79
2023/06/11 01:41:18;;;;;;;;;;;;;;;;;;140640;1250;22226;-78
2023/06/11 01:44:20;;;;;;;;;;;;;;;;;;140649;1250;22176;-80
2023/06/11 01:47:23;;;;;;;;;;;;;;;;;;140649;1250;22146;-80
2023/06/11 01:50:24;;;;;;;;;;;;;;;;;;140624;1250;22247;-80
2023/06/11 01:53:25;;;;;;;;;;;;;;;;;;140640;1250;22374;-80
2023/06/11 01:56:27;;;;;;;;;;;;;;;;;;140656;1250;22265;-81
2023/06/11 01:59:28;;;;;;;;;;;;;;;;;;140632;1250;22731;-80
2023/06/11 02:02:31;;;;;;;;;;;;;;;;;;140648;1250;22346;-80
2023/06/11 02:05:32;;;;;;;;;;;;;;;;;;140619;1244;22166;-80
2023/06/11 02:08:33;;;;;;;;;;;;;;;;;;140633;1250;22340;-80
2023/06/11 02:11:34;;;;;;;;;;;;;;;;;;140646;1250;22182;-80
2023/06/11 02:14:35;;;;;;;;;;;;;;;;;;140656;1250;22240;-80
2023/06/11 02:17:36;;;;;;;;;;;;;;;;;;140767;1250;22196;-80
2023/06/11 02:20:37;;;;;;;;;;;;;;;;;;140771;1250;22247;-80
2023/06/11 02:23:38;;;;;;;;;;;;;;;;;;140754;1250;22164;-80
2023/06/11 02:26:39;;;;;;;;;;;;;;;;;;140670;1250;22249;-80
2023/06/11 02:29:40;;;;;;;;;;;;;;;;;;140620;1250;22615;-81
2023/06/11 02:32:42;;;;;;;;;;;;;;;;;;140624;1250;22253;-81
2023/06/11 02:35:43;;;;;;;;;;;;;;;;;;140621;1250;22430;-80
2023/06/11 02:38:44;;;;;;;;;;;;;;;;;;140629;1250;22332;-80
2023/06/11 02:41:45;;;;;;;;;;;;;;;;;;140641;1250;22244;-81
2023/06/11 02:44:46;;;;;;;;;;;;;;;;;;140625;1250;22148;-80
2023/06/11 02:47:47;;;;;;;;;;;;;;;;;;140655;1250;22145;-80
2023/06/11 02:50:48;;;;;;;;;;;;;;;;;;140651;1250;22258;-81
2023/06/11 02:53:49;;;;;;;;;;;;;;;;;;140634;1250;22159;-81
2023/06/11 02:56:50;;;;;;;;;;;;;;;;;;140653;1250;22287;-81
2023/06/11 02:59:51;;;;;;;;;;;;;;;;;;140637;1250;22217;-80
2023/06/11 03:02:52;;;;;;;;;;;;;;;;;;140638;1250;22248;-81
2023/06/11 03:05:53;;;;;;;;;;;;;;;;;;140664;1250;22376;-81
2023/06/11 03:08:54;;;;;;;;;;;;;;;;;;140671;1250;22267;-80
2023/06/11 03:11:55;;;;;;;;;;;;;;;;;;140662;1250;22257;-80
2023/06/11 03:14:57;;;;;;;;;;;;;;;;;;140646;1250;22248;-80
2023/06/11 03:17:58;;;;;;;;;;;;;;;;;;140671;1250;22320;-81
2023/06/11 03:20:59;;;;;;;;;;;;;;;;;;140668;1250;22281;-80
2023/06/11 03:24:00;;;;;;;;;;;;;;;;;;140648;1250;22672;-80
2023/06/11 03:27:01;;;;;;;;;;;;;;;;;;140623;1250;22313;-81
2023/06/11 03:30:02;;;;;;;;;;;;;;;;;;140656;1250;22153;-81
2023/06/11 03:33:03;;;;;;;;;;;;;;;;;;140648;1250;22170;-81
2023/06/11 03:36:04;;;;;;;;;;;;;;;;;;140646;1250;22668;-81
2023/06/11 03:39:05;;;;;;;;;;;;;;;;;;140652;1250;22150;-81
2023/06/11 03:42:06;;;;;;;;;;;;;;;;;;140664;1250;22231;-81
2023/06/11 03:45:07;;;;;;;;;;;;;;;;;;140667;1250;22862;-81
2023/06/11 03:48:08;;;;;;;;;;;;;;;;;;140644;1250;22617;-80
2023/06/11 03:51:09;;;;;;;;;;;;;;;;;;140654;1250;22272;-81
2023/06/11 03:54:10;;;;;;;;;;;;;;;;;;140657;1250;22150;-81
2023/06/11 03:57:12;;;;;;;;;;;;;;;;;;140656;1250;22148;-81
2023/06/11 04:00:13;;;;;;;;;;;;;;;;;;140659;1250;22790;-81
2023/06/11 04:03:14;;;;;;;;;;;;;;;;;;140660;1250;22158;-81
2023/06/11 04:06:15;;;;;;;;;;;;;;;;;;140677;1250;22400;-81
2023/06/11 04:09:17;;;;;;;;;;;;;;;;;;140673;1250;22592;-81
2023/06/11 04:12:18;;;;;;;;;;;;;;;;;;140698;1247;22197;-81
2023/06/11 04:15:19;;;;;;;;;;;;;;;;;;140667;1250;22239;-81
2023/06/11 04:18:20;;;;;;;;;;;;;;;;;;140657;1250;22198;-82
2023/06/11 04:21:21;;;;;;;;;;;;;;;;;;140681;1250;22603;-81
2023/06/11 04:24:22;;;;;;;;;;;;;;;;;;140662;1250;22174;-80
2023/06/11 04:27:23;;;;;;;;;;;;;;;;;;140690;1250;22243;-82
2023/06/11 04:30:24;;;;;;;;;;;;;;;;;;140673;1250;22162;-80
2023/06/11 04:33:32;;;;;;;;;;;;;;;;;;140674;1250;22452;-81
2023/06/11 04:36:33;;;;;;;;;;;;;;;;;;140677;1250;22742;-81
2023/06/11 04:39:37;;;;;;;;;;;;;;;;;;140682;1250;22253;-81
2023/06/11 04:42:40;;;;;;;;;;;;;;;;;;140694;1250;22231;-81
2023/06/11 04:45:42;;;;;;;;;;;;;;;;;;140694;1247;22212;-81
2023/06/11 04:48:43;;;;;;;;;;;;;;;;;;140697;1250;22199;-82
2023/06/11 04:51:48;;;;;;;;;;;;;;;;;;140669;1247;22225;-81
2023/06/11 04:54:49;;;;;;;;;;;;;;;;;;140706;1250;22256;-82
2023/06/11 04:57:50;;;;;;;;;;;;;;;;;;140648;1250;22179;-82
2023/06/11 05:00:51;;;;;;;;;;;;;;;;;;140538;1250;22264;-82
2023/06/11 05:03:52;;;;;;;;;;;;;;;;;;140695;1250;22144;-81
2023/06/11 05:06:54;;;;;;;;;;;;;;;;;;140381;1250;295047;-83
2023/06/11 05:09:55;;;;;;;;;;;;;;;;;;140606;1250;22226;-83
2023/06/11 05:12:56;;;;;;;;;;;;;;;;;;140695;1250;22185;-82
2023/06/11 05:15:57;;;;;;;;;;;;;;;;;;140657;1250;22192;-83
2023/06/11 05:18:58;;;;;;;;;;;;;;;;;;140570;1250;22336;-82
2023/06/11 05:22:00;;;;;;;;;;;;;;;;;;140784;1250;22230;-83
2023/06/11 05:25:01;;;;;;;;;;;;;;;;;;140727;1250;22319;-84
2023/06/11 05:28:02;;;;;;;;;;;;;;;;;;140773;1250;22165;-84
2023/06/11 05:31:05;;;;;;;;;;;;;;;;;;140737;1250;22230;-84
2023/06/11 05:34:06;;;;;;;;;;;;;;;;;;140710;1250;22283;-83
2023/06/11 05:37:07;;;;;;;;;;;;;;;;;;140732;1250;22332;-84
2023/06/11 05:40:09;;;;;;;;;;;;;;;;;;140762;1250;22259;-84
2023/06/11 05:43:10;;;;;;;;;;;;;;;;;;140721;1250;22363;-83
2023/06/11 05:46:11;;;;;;;;;;;;;;;;;;140721;1250;22562;-83
2023/06/11 05:49:13;;;;;;;;;;;;;;;;;;140692;1250;22171;-83
2023/06/11 05:52:14;;;;;;;;;;;;;;;;;;140694;1250;22252;-83
2023/06/11 05:55:15;;;;;;;;;;;;;;;;;;140652;1250;22349;-83
2023/06/11 05:58:16;;;;;;;;;;;;;;;;;;140717;1250;22247;-83
2023/06/11 06:01:17;;;;;;;;;;;;;;;;;;140709;1250;22238;-83
2023/06/11 06:04:18;;;;;;;;;;;;;;;;;;140642;1250;22179;-82
2023/06/11 06:07:20;;;;;;;;;;;;;;;;;;140686;1244;22402;-83
2023/06/11 06:10:21;;;;;;;;;;;;;;;;;;140784;1250;22254;-82
2023/06/11 06:13:22;;;;;;;;;;;;;;;;;;140819;1250;22261;-81
2023/06/11 06:16:23;;;;;;;;;;;;;;;;;;140786;1250;22064;-82
2023/06/11 06:19:24;;;;;;;;;;;;;;;;;;140745;1250;22241;-81
2023/06/11 06:22:25;;;;;;;;;;;;;;;;;;140653;1250;22223;-83
2023/06/11 06:25:27;;;;;;;;;;;;;;;;;;140649;1250;22271;-82
2023/06/11 06:28:28;;;;;;;;;;;;;;;;;;140644;1250;22373;-82
2023/06/11 06:31:30;;;;;;;;;;;;;;;;;;140607;1250;22255;-83
2023/06/11 06:34:31;;;;;;;;;;;;;;;;;;140646;1250;22337;-83
2023/06/11 06:37:32;;;;;;;;;;;;;;;;;;140640;1250;22329;-83
2023/06/11 06:40:33;;;;;;;;;;;;;;;;;;140649;1250;22271;-83
2023/06/11 06:43:34;;;;;;;;;;;;;;;;;;140666;1250;22664;-82
2023/06/11 06:46:36;;;;;;;;;;;;;;;;;;140659;1250;22737;-84
2023/06/11 06:49:38;;;;;;;;;;;;;;;;;;140711;1250;22150;-83
2023/06/11 06:52:39;;;;;;;;;;;;;;;;;;140743;1247;22237;-83
2023/06/11 06:55:40;;;;;;;;;;;;;;;;;;140744;1250;22233;-83
2023/06/11 06:58:41;;;;;;;;;;;;;;;;;;140743;1250;22307;-83
2023/06/11 07:01:42;;;;;;;;;;;;;;;;;;140733;1250;22744;-83
2023/06/11 07:04:46;;;;;;;;;;;;;;;;;;140760;1250;22274;-84
2023/06/11 07:07:47;;;;;;;;;;;;;;;;;;140736;1250;22678;-83
2023/06/11 07:10:48;;;;;;;;;;;;;;;;;;140750;1250;22257;-84
2023/06/11 07:13:49;;;;;;;;;;;;;;;;;;140734;1250;22615;-84
2023/06/11 07:16:52;;;;;;;;;;;;;;;;;;140762;1250;22246;-83
2023/06/11 07:19:53;;;;;;;;;;;;;;;;;;140759;1250;22167;-83
2023/06/11 07:22:54;;;;;;;;;;;;;;;;;;140714;1250;22297;-83
2023/06/11 07:25:55;;;;;;;;;;;;;;;;;;140711;1250;22359;-84
2023/06/11 07:28:56;;;;;;;;;;;;;;;;;;140733;1250;22306;-84
2023/06/11 07:31:57;;;;;;;;;;;;;;;;;;140727;1250;22298;-83
2023/06/11 07:34:58;;;;;;;;;;;;;;;;;;140747;1250;22166;-83
2023/06/11 07:38:00;;;;;;;;;;;;;;;;;;140749;1250;22366;-83
2023/06/11 07:41:01;;;;;;;;;;;;;;;;;;140747;1250;22265;-84
2023/06/11 07:44:02;;;;;;;;;;;;;;;;;;140764;1250;22757;-83
2023/06/11 07:47:03;;;;;;;;;;;;;;;;;;140767;1250;22188;-84
2023/06/11 07:50:04;;;;;;;;;;;;;;;;;;140788;1250;22246;-84
2023/06/11 07:53:07;;;;;;;;;;;;;;;;;;140792;1250;22592;-84
2023/06/11 07:56:08;;;;;;;;;;;;;;;;;;140783;1250;22634;-84
2023/06/11 07:59:10;;;;;;;;;;;;;;;;;;140788;1250;22166;-83
2023/06/11 08:02:11;;;;;;;;;;;;;;;;;;140751;1250;22261;-84
2023/06/11 08:05:17;;;;;;;;;;;;;;;;;;140750;1250;22161;-84
2023/06/11 08:08:18;;;;;;;;;;;;;;;;;;140843;1250;22596;-84
2023/06/11 08:11:19;;;;;;;;;;;;;;;;;;140619;1250;22802;-84
2023/06/11 08:14:21;;;;;;;;;;;;;;;;;;140836;1250;22173;-84
2023/06/11 08:17:22;;;;;;;;;;;;;;;;;;140785;1250;22250;-83
2023/06/11 08:20:23;;;;;;;;;;;;;;;;;;140806;1250;22185;-83
2023/06/11 08:23:25;;;;;;;;;;;;;;;;;;140775;1250;22557;-83
2023/06/11 08:26:27;;;;;;;;;;;;;;;;;;140781;1250;22167;-83
2023/06/11 08:29:28;;;;;;;;;;;;;;;;;;140815;1250;22167;-83
2023/06/11 08:32:29;;;;;;;;;;;;;;;;;;140763;1250;22668;-84
2023/06/11 08:35:30;;;;;;;;;;;;;;;;;;140743;1244;22195;-83
2023/06/11 08:38:31;;;;;;;;;;;;;;;;;;140754;1250;22349;-82
2023/06/11 08:41:32;;;;;;;;;;;;;;;;;;140812;1250;22273;-82
2023/06/11 08:44:33;;;;;;;;;;;;;;;;;;140826;1250;22313;-83
2023/06/11 08:47:34;;;;;;;;;;;;;;;;;;140839;1250;22259;-82
2023/06/11 08:50:36;;;;;;;;;;;;;;;;;;140806;1250;22259;-81
2023/06/11 08:53:37;;;;;;;;;;;;;;;;;;140782;1250;22256;-82
2023/06/11 08:56:38;;;;;;;;;;;;;;;;;;140793;1250;22252;-82
2023/06/11 08:59:39;;;;;;;;;;;;;;;;;;140811;1250;22244;-82
2023/06/11 09:02:43;;;;;;;;;;;;;;;;;;140861;1250;22298;-81
2023/06/11 09:05:45;;;;;;;;;;;;;;;;;;140830;1250;22364;-82
2023/06/11 09:08:46;;;;;;;;;;;;;;;;;;140767;1250;22256;-82
2023/06/11 09:11:47;;;;;;;;;;;;;;;;;;140840;1250;22240;-80
2023/06/11 09:14:48;;;;;;;;;;;;;;;;;;140823;1250;22165;-81
2023/06/11 09:17:49;;;;;;;;;;;;;;;;;;140860;1250;22181;-82
2023/06/11 09:20:51;;;;;;;;;;;;;;;;;;140829;1250;22695;-83
2023/06/11 09:23:52;;;;;;;;;;;;;;;;;;140844;1250;22157;-82
2023/06/11 09:26:53;;;;;;;;;;;;;;;;;;140834;1250;22699;-82
2023/06/11 09:29:54;;;;;;;;;;;;;;;;;;140824;1250;22309;-82
2023/06/11 09:32:55;;;;;;;;;;;;;;;;;;140814;1250;22272;-81
2023/06/11 09:35:56;;;;;;;;;;;;;;;;;;140764;1250;22374;-82
2023/06/11 09:38:57;;;;;;;;;;;;;;;;;;140805;1250;22250;-82
2023/06/11 09:41:59;;;;;;;;;;;;;;;;;;140849;1250;22278;-82
2023/06/11 09:45:00;;;;;;;;;;;;;;;;;;140864;1250;22266;-82
2023/06/11 09:48:01;;;;;;;;;;;;;;;;;;140838;1250;22261;-83
2023/06/11 09:51:03;;;;;;;;;;;;;;;;;;140821;1250;22153;-83
2023/06/11 09:54:04;;;;;;;;;;;;;;;;;;140838;1250;22660;-83
2023/06/11 09:57:05;;;;;;;;;;;;;;;;;;140845;1250;22313;-82
2023/06/11 10:00:09;;;;;;;;;;;;;;;;;;140850;1250;22351;-83
2023/06/11 10:03:10;;;;;;;;;;;;;;;;;;140802;1250;22166;-81
2023/06/11 10:06:11;;;;;;;;;;;;;;;;;;140792;1250;22749;-83
2023/06/11 10:09:12;;;;;;;;;;;;;;;;;;140804;1248;22192;-82
2023/06/11 10:12:14;;;;;;;;;;;;;;;;;;140819;1250;23081;-83
2023/06/11 10:15:15;;;;;;;;;;;;;;;;;;140840;1250;22154;-83
2023/06/11 10:18:16;;;;;;;;;;;;;;;;;;140829;1250;22272;-81
2023/06/11 10:21:17;;;;;;;;;;;;;;;;;;140864;1250;22261;-83
2023/06/11 10:24:18;;;;;;;;;;;;;;;;;;140855;1250;22170;-81
2023/06/11 10:27:19;;;;;;;;;;;;;;;;;;140854;1250;22268;-83
2023/06/11 10:30:20;;;;;;;;;;;;;;;;;;140864;1250;22156;-84
2023/06/11 10:33:21;;;;;;;;;;;;;;;;;;140823;1250;22292;-83
2023/06/11 10:36:22;;;;;;;;;;;;;;;;;;140851;1250;22364;-82
2023/06/11 10:39:25;;;;;;;;;;;;;;;;;;140765;1250;22279;-83
2023/06/11 10:42:26;;;;;;;;;;;;;;;;;;140857;1250;22234;-82
2023/06/11 10:45:27;;;;;;;;;;;;;;;;;;140837;1250;22181;-84
2023/06/11 10:48:28;;;;;;;;;;;;;;;;;;140845;1250;22160;-83
2023/06/11 10:51:29;;;;;;;;;;;;;;;;;;140854;1250;22280;-83
2023/06/11 10:54:30;;;;;;;;;;;;;;;;;;140878;1250;22387;-83
2023/06/11 10:57:32;;;;;;;;;;;;;;;;;;140862;1250;22241;-83
2023/06/11 11:00:34;;;;;;;;;;;;;;;;;;140660;1250;22370;-83
2023/06/11 11:03:35;;;;;;;;;;;;;;;;;;140838;1250;22310;-83
2023/06/11 11:06:38;;;;;;;;;;;;;;;;;;140613;1250;22463;-83
2023/06/11 11:09:39;;;;;;;;;;;;;;;;;;140885;1250;22252;-83
2023/06/11 11:12:40;;;;;;;;;;;;;;;;;;140855;1250;22201;-83
2023/06/11 11:15:42;;;;;;;;;;;;;;;;;;140907;1250;22251;-83
2023/06/11 11:18:43;;;;;;;;;;;;;;;;;;140820;1250;22197;-83
2023/06/11 11:21:46;;;;;;;;;;;;;;;;;;140780;1250;22249;-83
2023/06/11 11:24:47;;;;;;;;;;;;;;;;;;140825;1250;22199;-83
2023/06/11 11:27:48;;;;;;;;;;;;;;;;;;140853;1250;22308;-82
2023/06/11 11:30:49;;;;;;;;;;;;;;;;;;140782;1250;22192;-84
2023/06/11 11:33:50;;;;;;;;;;;;;;;;;;140652;1250;22269;-83
2023/06/11 11:36:51;;;;;;;;;;;;;;;;;;140761;1250;22462;-82
2023/06/11 11:39:53;;;;;;;;;;;;;;;;;;140807;1250;22247;-84
2023/06/11 11:42:55;;;;;;;;;;;;;;;;;;140812;1250;22175;-83
2023/06/11 11:45:56;;;;;;;;;;;;;;;;;;140762;1250;22246;-82
2023/06/11 11:48:57;;;;;;;;;;;;;;;;;;140787;1250;22184;-83
2023/06/11 11:52:00;;;;;;;;;;;;;;;;;;140851;1250;22257;-83
2023/06/11 11:55:01;;;;;;;;;;;;;;;;;;140798;1248;22195;-84
2023/06/11 11:58:03;;;;;;;;;;;;;;;;;;140775;1250;22255;-85
2023/06/11 12:01:04;;;;;;;;;;;;;;;;;;140790;1250;22174;-85
2023/06/11 12:04:06;;;;;;;;;;;;;;;;;;140786;1250;22239;-84
2023/06/11 12:07:07;;;;;;;;;;;;;;;;;;140781;1250;22365;-85
2023/06/11 12:10:08;;;;;;;;;;;;;;;;;;140713;1250;22180;-84
2023/06/11 12:13:09;;;;;;;;;;;;;;;;;;140741;1250;22279;-85
2023/06/11 12:16:10;;;;;;;;;;;;;;;;;;140826;1250;22239;-85
2023/06/11 12:19:12;;;;;;;;;;;;;;;;;;140800;1250;22638;-85
2023/06/11 12:22:14;;;;;;;;;;;;;;;;;;140780;1250;22195;-85
2023/06/11 12:25:15;;;;;;;;;;;;;;;;;;140764;1250;22249;-85
2023/06/11 12:28:16;;;;;;;;;;;;;;;;;;140780;1250;22261;-85
2023/06/11 12:31:18;;;;;;;;;;;;;;;;;;140745;1250;22255;-85
2023/06/11 12:34:19;;;;;;;;;;;;;;;;;;140770;1250;22372;-84
2023/06/11 12:37:20;;;;;;;;;;;;;;;;;;140791;1250;22661;-84
2023/06/11 12:40:21;;;;;;;;;;;;;;;;;;140791;1247;22167;-84
2023/06/11 12:43:22;;;;;;;;;;;;;;;;;;140760;1250;22200;-83
2023/06/11 12:46:23;;;;;;;;;;;;;;;;;;140717;1250;22145;-84
2023/06/11 12:49:27;;;;;;;;;;;;;;;;;;140698;1250;22279;-83
2023/06/11 12:52:28;;;;;;;;;;;;;;;;;;140735;1250;22242;-83
2023/06/11 12:55:30;;;;;;;;;;;;;;;;;;140772;1250;22252;-84
2023/06/11 12:58:31;;;;;;;;;;;;;;;;;;140774;1250;22296;-82
2023/06/11 13:01:32;;;;;;;;;;;;;;;;;;140785;1250;22283;-83
2023/06/11 13:04:33;;;;;;;;;;;;;;;;;;140721;1250;22288;-84
2023/06/11 13:07:34;;;;;;;;;;;;;;;;;;140720;1250;22406;-84
2023/06/11 13:10:35;;;;;;;;;;;;;;;;;;140733;1250;22240;-84
2023/06/11 13:13:36;;;;;;;;;;;;;;;;;;140739;1250;22669;-85
2023/06/11 13:16:40;;;;;;;;;;;;;;;;;;140724;1247;22655;-84
2023/06/11 13:19:41;;;;;;;;;;;;;;;;;;140685;1250;22175;-84
2023/06/11 13:22:42;;;;;;;;;;;;;;;;;;140675;1250;22710;-85
2023/06/11 13:25:43;;;;;;;;;;;;;;;;;;140694;1250;22316;-84
2023/06/11 13:28:44;;;;;;;;;;;;;;;;;;140734;1250;22665;-85
2023/06/11 13:31:45;;;;;;;;;;;;;;;;;;140705;1250;22247;-84
2023/06/11 13:34:46;;;;;;;;;;;;;;;;;;140757;1247;22634;-84
2023/06/11 13:37:47;;;;;;;;;;;;;;;;;;140758;1250;22346;-83
2023/06/11 13:40:48;;;;;;;;;;;;;;;;;;140754;1250;22249;-83
2023/06/11 13:43:49;;;;;;;;;;;;;;;;;;140779;1250;22152;-84
2023/06/11 13:46:51;;;;;;;;;;;;;;;;;;140803;1250;22189;-85
2023/06/11 13:49:52;;;;;;;;;;;;;;;;;;140789;1250;22317;-84
2023/06/11 13:52:53;;;;;;;;;;;;;;;;;;140728;1246;22615;-85
2023/06/11 13:55:54;;;;;;;;;;;;;;;;;;140753;1247;22719;-84
2023/06/11 13:58:55;;;;;;;;;;;;;;;;;;140759;1250;22159;-83
2023/06/11 14:02:00;;;;;;;;;;;;;;;;;;140780;1250;22610;-83
2023/06/11 14:05:02;;;;;;;;;;;;;;;;;;140747;1250;22161;-83
2023/06/11 14:08:04;;;;;;;;;;;;;;;;;;140761;1250;22746;-85
2023/06/11 14:11:05;;;;;;;;;;;;;;;;;;140721;1250;22275;-84
2023/06/11 14:14:08;;;;;;;;;;;;;;;;;;140759;1250;22294;-85
2023/06/11 14:17:10;;;;;;;;;;;;;;;;;;140761;1250;22339;-84
2023/06/11 14:20:11;;;;;;;;;;;;;;;;;;140829;1250;22260;-85
2023/06/11 14:23:12;;;;;;;;;;;;;;;;;;140689;1250;22213;-85
2023/06/11 14:26:13;;;;;;;;;;;;;;;;;;140776;1250;22389;-84
2023/06/11 14:29:14;;;;;;;;;;;;;;;;;;140802;1250;22278;-84
2023/06/11 14:32:15;;;;;;;;;;;;;;;;;;140760;1250;22272;-83
2023/06/11 14:35:16;;;;;;;;;;;;;;;;;;140758;1247;22214;-83
2023/06/11 14:38:17;;;;;;;;;;;;;;;;;;140710;1247;22783;-84
2023/06/11 14:41:19;;;;;;;;;;;;;;;;;;140686;1250;22150;-84
2023/06/11 14:44:20;;;;;;;;;;;;;;;;;;140727;1250;22140;-83
2023/06/11 14:47:21;;;;;;;;;;;;;;;;;;140826;1250;22268;-83
2023/06/11 14:50:23;;;;;;;;;;;;;;;;;;140829;1250;22250;-83
2023/06/11 14:53:25;;;;;;;;;;;;;;;;;;140925;1250;22219;-84
2023/06/11 14:56:27;;;;;;;;;;;;;;;;;;140429;1251;22756;-84
2023/06/11 14:59:28;;;;;;;;;;;;;;;;;;140102;1258;22262;-83
2023/06/11 15:02:34;;;;;;;;;;;;;;;;;;140035;1258;22157;-84
2023/06/11 15:05:35;;;;;;;;;;;;;;;;;;139982;1258;22260;-83
2023/06/11 15:08:36;;;;;;;;;;;;;;;;;;139962;1258;22351;-83
2023/06/11 15:11:40;;;;;;;;;;;;;;;;;;139913;1258;22185;-83
2023/06/11 15:14:41;;;;;;;;;;;;;;;;;;139898;1258;22845;-84
2023/06/11 15:17:42;;;;;;;;;;;;;;;;;;139883;1258;22260;-83
2023/06/11 15:20:44;;;;;;;;;;;;;;;;;;139795;1258;22285;-83
2023/06/11 15:23:45;;;;;;;;;;;;;;;;;;139854;1257;22286;-84
2023/06/11 15:26:46;;;;;;;;;;;;;;;;;;139866;1256;22232;-82
2023/06/11 15:29:47;;;;;;;;;;;;;;;;;;139786;1258;22303;-84
2023/06/11 15:32:48;;;;;;;;;;;;;;;;;;139949;1256;22286;-84
2023/06/11 15:35:49;;;;;;;;;;;;;;;;;;139948;1258;22375;-83
2023/06/11 15:38:50;;;;;;;;;;;;;;;;;;139957;1258;22250;-84
2023/06/11 15:41:53;;;;;;;;;;;;;;;;;;139963;1258;22180;-84
2023/06/11 15:44:54;;;;;;;;;;;;;;;;;;139963;1258;22675;-84
2023/06/11 15:47:55;;;;;;;;;;;;;;;;;;139988;1250;22190;-83
2023/06/11 15:50:57;;;;;;;;;;;;;;;;;;139978;1258;22281;-84
2023/06/11 15:53:58;;;;;;;;;;;;;;;;;;139985;1258;22608;-84
2023/06/11 15:56:59;;;;;;;;;;;;;;;;;;139990;1258;22249;-84
2023/06/11 16:00:00;;;;;;;;;;;;;;;;;;139952;1258;22529;-84
2023/06/11 16:03:01;;;;;;;;;;;;;;;;;;139984;1258;22263;-84
2023/06/11 16:06:02;;;;;;;;;;;;;;;;;;139948;1254;22384;-85
2023/06/11 16:09:04;;;;;;;;;;;;;;;;;;139962;1258;22180;-84
2023/06/11 16:12:05;;;;;;;;;;;;;;;;;;139945;1258;22442;-85
2023/06/11 16:15:06;;;;;;;;;;;;;;;;;;139927;1258;22227;-84
2023/06/11 16:18:07;;;;;;;;;;;;;;;;;;139955;1258;22158;-83
2023/06/11 16:21:08;;;;;;;;;;;;;;;;;;139894;1256;22185;-84
2023/06/11 16:24:09;;;;;;;;;;;;;;;;;;139850;1258;22250;-84
2023/06/11 16:27:10;;;;;;;;;;;;;;;;;;139816;1258;22182;-84
2023/06/11 16:30:12;;;;;;;;;;;;;;;;;;139860;1258;22584;-83
2023/06/11 16:33:13;;;;;;;;;;;;;;;;;;139863;1258;22638;-84
2023/06/11 16:36:14;;;;;;;;;;;;;;;;;;139840;1258;22823;-84
2023/06/11 16:39:16;;;;;;;;;;;;;;;;;;139853;1258;22566;-83
2023/06/11 16:42:17;;;;;;;;;;;;;;;;;;139831;1258;22171;-83
2023/06/11 16:45:18;;;;;;;;;;;;;;;;;;139872;1258;22282;-82
2023/06/11 16:48:19;;;;;;;;;;;;;;;;;;139902;1258;22248;-83
2023/06/11 16:51:20;;;;;;;;;;;;;;;;;;139928;1258;22148;-83
2023/06/11 16:54:21;;;;;;;;;;;;;;;;;;139969;1258;22286;-83
2023/06/11 16:57:22;;;;;;;;;;;;;;;;;;139957;1258;22250;-83
2023/06/11 17:00:23;;;;;;;;;;;;;;;;;;139936;1258;22246;-85
2023/06/11 17:03:25;;;;;;;;;;;;;;;;;;139974;1258;22247;-85
2023/06/11 17:06:26;;;;;;;;;;;;;;;;;;139823;1258;177805;-86
2023/06/11 17:09:27;;;;;;;;;;;;;;;;;;139931;1258;22263;-83
2023/06/11 17:12:28;;;;;;;;;;;;;;;;;;139896;1254;22228;-85
2023/06/11 17:15:29;;;;;;;;;;;;;;;;;;139946;1258;22496;-85
2023/06/11 17:18:30;;;;;;;;;;;;;;;;;;139915;1258;22833;-84
2023/06/11 17:21:32;;;;;;;;;;;;;;;;;;139920;1257;22720;-84
2023/06/11 17:24:33;;;;;;;;;;;;;;;;;;139926;1258;22732;-85
2023/06/11 17:27:34;;;;;;;;;;;;;;;;;;139939;1258;22766;-85
2023/06/11 17:30:35;;;;;;;;;;;;;;;;;;139972;1258;22151;-84
2023/06/11 17:33:36;;;;;;;;;;;;;;;;;;139952;1258;22258;-84
2023/06/11 17:36:38;;;;;;;;;;;;;;;;;;139961;1256;22363;-83
2023/06/11 17:39:39;;;;;;;;;;;;;;;;;;139998;1258;22235;-84
2023/06/11 17:42:41;;;;;;;;;;;;;;;;;;140058;1258;22286;-85
2023/06/11 17:45:42;;;;;;;;;;;;;;;;;;140087;1258;22279;-85
2023/06/11 17:48:43;;;;;;;;;;;;;;;;;;140087;1258;22242;-85
2023/06/11 17:51:45;;;;;;;;;;;;;;;;;;140054;1256;22442;-85
2023/06/11 17:54:46;;;;;;;;;;;;;;;;;;140081;1258;22190;-85
2023/06/11 17:57:48;;;;;;;;;;;;;;;;;;140064;1258;22772;-85
2023/06/11 18:00:49;;;;;;;;;;;;;;;;;;140086;1258;22278;-85
2023/06/11 18:03:50;;;;;;;;;;;;;;;;;;140069;1258;22185;-84
2023/06/11 18:06:51;;;;;;;;;;;;;;;;;;140074;1258;22828;-85
2023/06/11 18:09:52;;;;;;;;;;;;;;;;;;140068;1258;22169;-85
2023/06/11 18:12:53;;;;;;;;;;;;;;;;;;140070;1258;22269;-86
2023/06/11 18:15:55;;;;;;;;;;;;;;;;;;139998;1258;22756;-85
2023/06/11 18:18:56;;;;;;;;;;;;;;;;;;140035;1258;22275;-85
2023/06/11 18:21:57;;;;;;;;;;;;;;;;;;140024;1258;22242;-85
2023/06/11 18:24:59;;;;;;;;;;;;;;;;;;140041;1258;22280;-85
2023/06/11 18:28:00;;;;;;;;;;;;;;;;;;140041;1258;22154;-85
2023/06/11 18:31:02;;;;;;;;;;;;;;;;;;140014;1258;22268;-85
2023/06/11 18:34:03;;;;;;;;;;;;;;;;;;140022;1258;22252;-85
2023/06/11 18:37:05;;;;;;;;;;;;;;;;;;140043;1254;22365;-85
2023/06/11 18:40:06;;;;;;;;;;;;;;;;;;140007;1257;22687;-85
2023/06/11 18:43:08;;;;;;;;;;;;;;;;;;139950;1258;22257;-85
2023/06/11 18:46:12;;;;;;;;;;;;;;;;;;139996;1258;22205;-83
2023/06/11 18:49:13;;;;;;;;;;;;;;;;;;139996;1258;22191;-85
2023/06/11 18:52:15;;;;;;;;;;;;;;;;;;140023;1258;22226;-84
2023/06/11 18:55:19;;;;;;;;;;;;;;;;;;140018;1258;22209;-85
2023/06/11 18:58:20;;;;;;;;;;;;;;;;;;140022;1258;22237;-84
2023/06/11 19:01:21;;;;;;;;;;;;;;;;;;139968;1258;22261;-84
2023/06/11 19:04:23;;;;;;;;;;;;;;;;;;140014;1258;22626;-83
2023/06/11 19:07:24;;;;;;;;;;;;;;;;;;140004;1257;22350;-84
2023/06/11 19:10:25;;;;;;;;;;;;;;;;;;139921;1257;22274;-80
2023/06/11 19:13:27;;;;;;;;;;;;;;;;;;139926;1257;22278;-81
2023/06/11 19:16:28;;;;;;;;;;;;;;;;;;139893;1258;22246;-81
2023/06/11 19:19:29;;;;;;;;;;;;;;;;;;139935;1258;22246;-83
2023/06/11 19:22:30;;;;;;;;;;;;;;;;;;139920;1258;22244;-81
2023/06/11 19:25:31;;;;;;;;;;;;;;;;;;139943;1258;22695;-81
2023/06/11 19:28:32;;;;;;;;;;;;;;;;;;139953;1258;22245;-81
2023/06/11 19:31:33;;;;;;;;;;;;;;;;;;139851;1258;22270;-81
2023/06/11 19:34:34;;;;;;;;;;;;;;;;;;139975;1258;22167;-82
2023/06/11 19:37:35;;;;;;;;;;;;;;;;;;140071;1258;22338;-83
2023/06/11 19:40:36;;;;;;;;;;;;;;;;;;140065;1258;22183;-83
2023/06/11 19:43:37;;;;;;;;;;;;;;;;;;140015;1258;22272;-82
2023/06/11 19:46:38;;;;;;;;;;;;;;;;;;139980;1258;22164;-83
2023/06/11 19:49:39;;;;;;;;;;;;;;;;;;139937;1258;22278;-82
2023/06/11 19:52:41;;;;;;;;;;;;;;;;;;139972;1258;22273;-82
2023/06/11 19:55:44;;;;;;;;;;;;;;;;;;139950;1254;22170;-82
2023/06/11 19:58:45;;;;;;;;;;;;;;;;;;139980;1258;22557;-81
2023/06/11 20:01:46;;;;;;;;;;;;;;;;;;139981;1258;22650;-82
2023/06/11 20:04:47;;;;;;;;;;;;;;;;;;140025;1258;22291;-81
2023/06/11 20:07:48;;;;;;;;;;;;;;;;;;140039;1258;22875;-82
2023/06/11 20:10:57;;;;;;;;;;;;;;;;;;140021;1258;22639;-82
2023/06/11 20:13:58;;;;;;;;;;;;;;;;;;140051;1258;22708;-81
2023/06/11 20:16:59;;;;;;;;;;;;;;;;;;140046;1258;22654;-81